sensor_id;sensor_type;location;lat;lon;timestamp;pressure;altitude;pressure_sealevel;temperature;humidity
42847;BME280;28495;49.916;14.536;2023-02-22T00:00:18;96920.91;;;8.12;68.14
42847;BME280;28495;49.916;14.536;2023-02-22T00:05:47;96906.97;;;8.13;68.33
42847;BME280;28495;49.916;14.536;2023-02-22T00:11:13;96912.97;;;8.13;68.01
42847;BME280;28495;49.916;14.536;2023-02-22T00:16:34;96905.66;;;8.18;68.13
42847;BME280;28495;49.916;14.536;2023-02-22T00:21:55;96898.94;;;8.16;67.91
42847;BME280;28495;49.916;14.536;2023-02-22T00:27:17;96891.97;;;8.16;68.14
42847;BME280;28495;49.916;14.536;2023-02-22T00:32:37;96904.13;;;8.04;68.30
42847;BME280;28495;49.916;14.536;2023-02-22T00:38:00;96896.72;;;8.00;68.32
42847;BME280;28495;49.916;14.536;2023-02-22T00:43:21;96905.94;;;7.92;68.19
42847;BME280;28495;49.916;14.536;2023-02-22T00:48:42;96904.66;;;7.98;68.49
42847;BME280;28495;49.916;14.536;2023-02-22T00:54:04;96897.22;;;7.93;68.61
42847;BME280;28495;49.916;14.536;2023-02-22T00:59:24;96900.16;;;8.00;68.38
42847;BME280;28495;49.916;14.536;2023-02-22T01:04:46;96900.25;;;7.99;68.49
42847;BME280;28495;49.916;14.536;2023-02-22T01:10:07;96890.09;;;7.96;68.77
42847;BME280;28495;49.916;14.536;2023-02-22T01:15:30;96890.34;;;8.04;68.59
42847;BME280;28495;49.916;14.536;2023-02-22T01:20:51;96880.66;;;8.06;68.44
42847;BME280;28495;49.916;14.536;2023-02-22T01:26:12;96885.16;;;8.04;68.36
42847;BME280;28495;49.916;14.536;2023-02-22T01:31:33;96885.25;;;8.02;68.71
42847;BME280;28495;49.916;14.536;2023-02-22T01:36:53;96879.47;;;7.99;68.76
42847;BME280;28495;49.916;14.536;2023-02-22T01:42:14;96888.22;;;7.98;68.78
42847;BME280;28495;49.916;14.536;2023-02-22T01:47:36;96889.16;;;7.97;68.94
42847;BME280;28495;49.916;14.536;2023-02-22T01:52:58;96875.91;;;8.11;69.43
42847;BME280;28495;49.916;14.536;2023-02-22T01:58:20;96873.53;;;8.19;69.08
42847;BME280;28495;49.916;14.536;2023-02-22T02:03:43;96875.28;;;8.19;69.03
42847;BME280;28495;49.916;14.536;2023-02-22T02:15:28;96862.25;;;8.09;68.92
42847;BME280;28495;49.916;14.536;2023-02-22T02:38:33;96864.34;;;8.15;69.53
42847;BME280;28495;49.916;14.536;2023-02-22T02:44:03;96853.47;;;8.21;69.37
42847;BME280;28495;49.916;14.536;2023-02-22T02:49:39;96851.06;;;8.30;69.05
42847;BME280;28495;49.916;14.536;2023-02-22T02:55:05;96840.41;;;8.33;68.95
42847;BME280;28495;49.916;14.536;2023-02-22T03:00:32;96836.88;;;8.34;68.75
42847;BME280;28495;49.916;14.536;2023-02-22T03:17:46;96830.78;;;8.23;68.90
42847;BME280;28495;49.916;14.536;2023-02-22T03:23:19;96842.56;;;8.28;68.80
42847;BME280;28495;49.916;14.536;2023-02-22T03:28:46;96831.75;;;8.11;68.75
42847;BME280;28495;49.916;14.536;2023-02-22T03:34:15;96834.34;;;8.22;69.01
42847;BME280;28495;49.916;14.536;2023-02-22T03:39:40;96834.91;;;8.26;69.21
42847;BME280;28495;49.916;14.536;2023-02-22T03:45:04;96836.19;;;8.32;69.36
42847;BME280;28495;49.916;14.536;2023-02-22T03:50:34;96836.88;;;8.34;69.02
42847;BME280;28495;49.916;14.536;2023-02-22T03:55:58;96831.59;;;8.24;68.90
42847;BME280;28495;49.916;14.536;2023-02-22T04:01:20;96829.25;;;8.21;68.98
42847;BME280;28495;49.916;14.536;2023-02-22T04:06:43;96830.09;;;8.21;68.92
42847;BME280;28495;49.916;14.536;2023-02-22T04:12:06;96823.34;;;8.19;68.98
42847;BME280;28495;49.916;14.536;2023-02-22T04:17:43;96817.78;;;8.23;69.33
42847;BME280;28495;49.916;14.536;2023-02-22T04:23:06;96820.94;;;8.06;68.55
42847;BME280;28495;49.916;14.536;2023-02-22T04:28:31;96816.81;;;7.92;68.94
42847;BME280;28495;49.916;14.536;2023-02-22T04:34:07;96821.34;;;7.78;68.97
42847;BME280;28495;49.916;14.536;2023-02-22T04:39:32;96819.31;;;7.82;69.38
42847;BME280;28495;49.916;14.536;2023-02-22T04:44:53;96820.72;;;7.86;69.01
42847;BME280;28495;49.916;14.536;2023-02-22T04:50:15;96814.72;;;7.74;68.93
42847;BME280;28495;49.916;14.536;2023-02-22T04:55:36;96810.47;;;7.85;69.19
42847;BME280;28495;49.916;14.536;2023-02-22T05:00:57;96805.97;;;7.98;69.71
42847;BME280;28495;49.916;14.536;2023-02-22T05:06:19;96805.81;;;8.00;69.49
42847;BME280;28495;49.916;14.536;2023-02-22T05:11:40;96800.38;;;8.03;69.06
42847;BME280;28495;49.916;14.536;2023-02-22T05:17:01;96796.94;;;8.14;69.39
42847;BME280;28495;49.916;14.536;2023-02-22T05:22:22;96797.88;;;8.13;69.36
42847;BME280;28495;49.916;14.536;2023-02-22T05:27:43;96801.59;;;8.20;69.27
42847;BME280;28495;49.916;14.536;2023-02-22T05:33:04;96796.59;;;8.07;69.26
42847;BME280;28495;49.916;14.536;2023-02-22T05:38:26;96792.06;;;8.20;69.55
42847;BME280;28495;49.916;14.536;2023-02-22T05:43:47;96796.78;;;8.15;69.50
42847;BME280;28495;49.916;14.536;2023-02-22T05:49:08;96797.63;;;8.16;69.32
42847;BME280;28495;49.916;14.536;2023-02-22T05:54:28;96802.84;;;8.04;69.09
42847;BME280;28495;49.916;14.536;2023-02-22T05:59:49;96802.41;;;7.99;69.28
42847;BME280;28495;49.916;14.536;2023-02-22T06:05:10;96805.97;;;7.98;69.30
42847;BME280;28495;49.916;14.536;2023-02-22T06:10:31;96807.00;;;8.07;69.72
42847;BME280;28495;49.916;14.536;2023-02-22T06:15:52;96811.47;;;8.05;69.24
42847;BME280;28495;49.916;14.536;2023-02-22T06:21:12;96821.75;;;8.06;69.44
42847;BME280;28495;49.916;14.536;2023-02-22T06:26:34;96822.34;;;7.99;69.24
42847;BME280;28495;49.916;14.536;2023-02-22T06:31:57;96817.06;;;8.00;69.28
42847;BME280;28495;49.916;14.536;2023-02-22T06:37:18;96818.34;;;7.94;69.40
42847;BME280;28495;49.916;14.536;2023-02-22T06:42:39;96821.31;;;8.01;69.77
42847;BME280;28495;49.916;14.536;2023-02-22T06:48:00;96825.38;;;8.15;69.88
42847;BME280;28495;49.916;14.536;2023-02-22T06:53:21;96823.47;;;8.17;69.70
42847;BME280;28495;49.916;14.536;2023-02-22T06:58:42;96833.16;;;8.15;69.57
42847;BME280;28495;49.916;14.536;2023-02-22T07:04:03;96846.72;;;8.19;69.60
42847;BME280;28495;49.916;14.536;2023-02-22T07:09:23;96829.03;;;8.13;69.49
42847;BME280;28495;49.916;14.536;2023-02-22T07:14:45;96839.38;;;8.24;69.71
42847;BME280;28495;49.916;14.536;2023-02-22T07:20:06;96839.09;;;8.38;69.70
42847;BME280;28495;49.916;14.536;2023-02-22T07:25:27;96831.28;;;8.50;70.21
42847;BME280;28495;49.916;14.536;2023-02-22T07:30:48;96839.16;;;8.60;69.93
42847;BME280;28495;49.916;14.536;2023-02-22T07:36:08;96840.41;;;8.33;69.17
42847;BME280;28495;49.916;14.536;2023-02-22T07:41:29;96839.31;;;8.47;70.04
42847;BME280;28495;49.916;14.536;2023-02-22T07:46:50;96845.72;;;8.43;69.50
42847;BME280;28495;49.916;14.536;2023-02-22T07:52:10;96841.19;;;8.56;69.86
42847;BME280;28495;49.916;14.536;2023-02-22T07:57:32;96835.28;;;8.54;69.68
42847;BME280;28495;49.916;14.536;2023-02-22T08:02:53;96840.25;;;8.46;69.28
42847;BME280;28495;49.916;14.536;2023-02-22T08:08:14;96840.50;;;8.43;69.37
42847;BME280;28495;49.916;14.536;2023-02-22T08:13:38;96844.34;;;8.27;69.59
42847;BME280;28495;49.916;14.536;2023-02-22T08:18:59;96841.22;;;8.45;69.73
42847;BME280;28495;49.916;14.536;2023-02-22T08:24:20;96833.16;;;8.48;69.28
42847;BME280;28495;49.916;14.536;2023-02-22T08:29:41;96835.75;;;8.59;70.04
42847;BME280;28495;49.916;14.536;2023-02-22T08:35:02;96842.19;;;8.65;69.50
42847;BME280;28495;49.916;14.536;2023-02-22T08:40:25;96840.88;;;8.71;69.31
42847;BME280;28495;49.916;14.536;2023-02-22T08:45:47;96835.91;;;8.67;69.60
42847;BME280;28495;49.916;14.536;2023-02-22T08:51:08;96836.47;;;8.71;69.57
42847;BME280;28495;49.916;14.536;2023-02-22T08:56:29;96842.13;;;8.76;69.28
42847;BME280;28495;49.916;14.536;2023-02-22T09:01:50;96836.88;;;8.66;69.74
42847;BME280;28495;49.916;14.536;2023-02-22T09:07:11;96836.75;;;8.89;69.61
42847;BME280;28495;49.916;14.536;2023-02-22T09:12:32;96834.88;;;9.01;70.01
42847;BME280;28495;49.916;14.536;2023-02-22T09:17:53;96838.31;;;9.02;69.01
42847;BME280;28495;49.916;14.536;2023-02-22T09:23:13;96840.28;;;9.09;69.70
42847;BME280;28495;49.916;14.536;2023-02-22T09:28:35;96828.69;;;9.23;69.52
42847;BME280;28495;49.916;14.536;2023-02-22T09:33:55;96829.03;;;9.40;69.09
42847;BME280;28495;49.916;14.536;2023-02-22T09:39:17;96829.69;;;9.32;69.06
42847;BME280;28495;49.916;14.536;2023-02-22T09:50:10;96820.44;;;9.49;69.47
42847;BME280;28495;49.916;14.536;2023-02-22T09:55:38;96824.59;;;9.61;69.39
42847;BME280;28495;49.916;14.536;2023-02-22T10:01:13;96827.06;;;9.63;68.74
42847;BME280;28495;49.916;14.536;2023-02-22T10:06:41;96813.91;;;9.65;68.56
42847;BME280;28495;49.916;14.536;2023-02-22T10:28:56;96804.97;;;9.57;68.58
42847;BME280;28495;49.916;14.536;2023-02-22T10:34:26;96797.88;;;9.69;68.19
42847;BME280;28495;49.916;14.536;2023-02-22T10:39:49;96796.38;;;9.76;68.37
42847;BME280;28495;49.916;14.536;2023-02-22T10:50:45;96779.03;;;9.97;68.44
42847;BME280;28495;49.916;14.536;2023-02-22T11:12:27;96770.00;;;10.40;67.60
42847;BME280;28495;49.916;14.536;2023-02-22T11:17:54;96759.97;;;10.93;67.76
42847;BME280;28495;49.916;14.536;2023-02-22T11:23:19;96753.44;;;10.79;67.08
42847;BME280;28495;49.916;14.536;2023-02-22T11:28:45;96751.94;;;11.04;67.59
42847;BME280;28495;49.916;14.536;2023-02-22T11:40:22;96740.78;;;10.74;66.74
42847;BME280;28495;49.916;14.536;2023-02-22T11:46:03;96734.66;;;10.65;66.69
42847;BME280;28495;49.916;14.536;2023-02-22T11:57:54;96728.13;;;10.42;66.67
42847;BME280;28495;49.916;14.536;2023-02-22T12:03:37;96719.31;;;10.52;66.73
42847;BME280;28495;49.916;14.536;2023-02-22T12:09:11;96722.22;;;10.40;66.31
42847;BME280;28495;49.916;14.536;2023-02-22T12:14:38;96713.56;;;10.49;66.72
42847;BME280;28495;49.916;14.536;2023-02-22T12:20:18;96711.06;;;10.57;66.30
42847;BME280;28495;49.916;14.536;2023-02-22T12:26:03;96703.25;;;10.57;66.43
42847;BME280;28495;49.916;14.536;2023-02-22T12:32:05;96706.97;;;10.55;66.08
42847;BME280;28495;49.916;14.536;2023-02-22T12:37:33;96706.97;;;10.55;66.24
42847;BME280;28495;49.916;14.536;2023-02-22T12:43:09;96703.06;;;10.68;66.16
42847;BME280;28495;49.916;14.536;2023-02-22T12:54:13;96699.06;;;10.74;65.79
42847;BME280;28495;49.916;14.536;2023-02-22T12:59:52;96692.94;;;10.65;65.74
42847;BME280;28495;49.916;14.536;2023-02-22T13:05:15;96697.72;;;10.70;65.58
42847;BME280;28495;49.916;14.536;2023-02-22T13:10:58;96686.69;;;10.76;65.60
42847;BME280;28495;49.916;14.536;2023-02-22T13:16:30;96687.53;;;10.77;65.38
42847;BME280;28495;49.916;14.536;2023-02-22T13:27:50;96679.47;;;10.70;64.85
42847;BME280;28495;49.916;14.536;2023-02-22T13:33:22;96676.03;;;10.70;65.24
42847;BME280;28495;49.916;14.536;2023-02-22T13:50:40;96680.53;;;10.77;65.15
42847;BME280;28495;49.916;14.536;2023-02-22T13:56:08;96682.41;;;10.85;65.07
42847;BME280;28495;49.916;14.536;2023-02-22T14:01:38;96678.41;;;10.91;64.85
42847;BME280;28495;49.916;14.536;2023-02-22T14:12:48;96685.56;;;11.17;65.35
42847;BME280;28495;49.916;14.536;2023-02-22T14:18:15;96669.38;;;11.13;64.61
42847;BME280;28495;49.916;14.536;2023-02-22T14:29:01;96673.88;;;10.93;64.25
42847;BME280;28495;49.916;14.536;2023-02-22T14:34:53;96670.34;;;10.84;64.02
42847;BME280;28495;49.916;14.536;2023-02-22T14:40:35;96667.88;;;10.82;64.17
42847;BME280;28495;49.916;14.536;2023-02-22T14:45:57;96654.16;;;10.80;64.13
42847;BME280;28495;49.916;14.536;2023-02-22T14:51:39;96663.16;;;10.96;64.40
42847;BME280;28495;49.916;14.536;2023-02-22T14:57:12;96663.44;;;10.93;64.55
42847;BME280;28495;49.916;14.536;2023-02-22T15:02:38;96661.41;;;10.87;64.58
42847;BME280;28495;49.916;14.536;2023-02-22T15:08:06;96663.38;;;10.75;64.54
42847;BME280;28495;49.916;14.536;2023-02-22T15:13:29;96664.00;;;10.59;64.83
42847;BME280;28495;49.916;14.536;2023-02-22T15:18:54;96662.50;;;10.46;64.86
42847;BME280;28495;49.916;14.536;2023-02-22T15:24:20;96659.09;;;10.36;65.03
42847;BME280;28495;49.916;14.536;2023-02-22T15:29:43;96662.84;;;10.24;65.22
42847;BME280;28495;49.916;14.536;2023-02-22T15:35:28;96653.66;;;10.19;65.46
42847;BME280;28495;49.916;14.536;2023-02-22T15:41:01;96655.31;;;10.11;65.43
42847;BME280;28495;49.916;14.536;2023-02-22T15:46:23;96651.47;;;10.05;65.57
42847;BME280;28495;49.916;14.536;2023-02-22T15:51:44;96654.94;;;9.96;65.39
42847;BME280;28495;49.916;14.536;2023-02-22T15:57:08;96656.44;;;9.88;65.71
42847;BME280;28495;49.916;14.536;2023-02-22T16:02:37;96661.78;;;9.77;65.77
42847;BME280;28495;49.916;14.536;2023-02-22T16:07:59;96657.00;;;9.63;65.72
42847;BME280;28495;49.916;14.536;2023-02-22T16:13:21;96657.94;;;9.52;66.09
42847;BME280;28495;49.916;14.536;2023-02-22T16:18:51;96657.81;;;9.43;66.13
42847;BME280;28495;49.916;14.536;2023-02-22T16:24:24;96664.78;;;9.33;65.81
42847;BME280;28495;49.916;14.536;2023-02-22T16:30:26;96664.63;;;9.25;66.16
42847;BME280;28495;49.916;14.536;2023-02-22T16:35:47;96670.22;;;9.10;66.03
42847;BME280;28495;49.916;14.536;2023-02-22T16:41:12;96671.00;;;9.01;66.17
42847;BME280;28495;49.916;14.536;2023-02-22T16:46:35;96667.84;;;8.97;66.51
42847;BME280;28495;49.916;14.536;2023-02-22T16:52:01;96677.72;;;8.94;66.63
42847;BME280;28495;49.916;14.536;2023-02-22T16:57:30;96677.72;;;8.94;66.79
42847;BME280;28495;49.916;14.536;2023-02-22T17:02:52;96681.00;;;8.96;67.00
42847;BME280;28495;49.916;14.536;2023-02-22T17:08:13;96683.06;;;9.02;66.88
42847;BME280;28495;49.916;14.536;2023-02-22T17:13:36;96679.09;;;8.98;66.80
42847;BME280;28495;49.916;14.536;2023-02-22T17:18:58;96685.09;;;8.98;67.06
42847;BME280;28495;49.916;14.536;2023-02-22T17:24:22;96691.25;;;8.97;66.86
42847;BME280;28495;49.916;14.536;2023-02-22T17:29:43;96695.25;;;9.02;66.79
42847;BME280;28495;49.916;14.536;2023-02-22T17:35:05;96692.50;;;9.03;67.20
42847;BME280;28495;49.916;14.536;2023-02-22T17:40:27;96700.97;;;8.95;66.54
42847;BME280;28495;49.916;14.536;2023-02-22T17:45:48;96693.41;;;8.82;67.12
42847;BME280;28495;49.916;14.536;2023-02-22T17:51:10;96694.91;;;8.85;66.80
42847;BME280;28495;49.916;14.536;2023-02-22T17:56:31;96690.50;;;8.76;66.93
42847;BME280;28495;49.916;14.536;2023-02-22T18:01:52;96683.09;;;8.71;67.02
42847;BME280;28495;49.916;14.536;2023-02-22T18:07:12;96682.78;;;8.64;66.84
42847;BME280;28495;49.916;14.536;2023-02-22T18:12:40;96681.78;;;8.56;66.94
42847;BME280;28495;49.916;14.536;2023-02-22T18:18:02;96678.88;;;8.49;66.72
42847;BME280;28495;49.916;14.536;2023-02-22T18:23:26;96681.03;;;8.44;66.89
42847;BME280;28495;49.916;14.536;2023-02-22T18:28:47;96684.03;;;8.39;66.93
42847;BME280;28495;49.916;14.536;2023-02-22T18:34:08;96677.44;;;8.35;66.69
42847;BME280;28495;49.916;14.536;2023-02-22T18:39:33;96679.41;;;8.21;66.76
42847;BME280;28495;49.916;14.536;2023-02-22T18:45:00;96680.22;;;8.22;66.63
42847;BME280;28495;49.916;14.536;2023-02-22T18:50:23;96680.78;;;8.26;66.88
42847;BME280;28495;49.916;14.536;2023-02-22T18:55:44;96674.16;;;8.12;66.82
42847;BME280;28495;49.916;14.536;2023-02-22T19:01:05;96677.25;;;8.05;66.44
42847;BME280;28495;49.916;14.536;2023-02-22T19:06:26;96676.53;;;8.03;66.85
42847;BME280;28495;49.916;14.536;2023-02-22T19:11:47;96676.44;;;8.05;66.98
42847;BME280;28495;49.916;14.536;2023-02-22T19:17:10;96679.72;;;8.07;66.75
42847;BME280;28495;49.916;14.536;2023-02-22T19:22:36;96668.38;;;8.08;66.61
42847;BME280;28495;49.916;14.536;2023-02-22T19:28:00;96673.13;;;8.03;66.83
42847;BME280;28495;49.916;14.536;2023-02-22T19:33:21;96681.06;;;8.01;66.49
42847;BME280;28495;49.916;14.536;2023-02-22T19:38:45;96673.25;;;8.01;66.66
42847;BME280;28495;49.916;14.536;2023-02-22T19:44:07;96675.78;;;7.91;66.86
42847;BME280;28495;49.916;14.536;2023-02-22T19:49:28;96674.06;;;7.81;66.77
42847;BME280;28495;49.916;14.536;2023-02-22T19:54:53;96673.84;;;7.72;66.66
42847;BME280;28495;49.916;14.536;2023-02-22T20:00:14;96667.06;;;7.60;66.77
42847;BME280;28495;49.916;14.536;2023-02-22T20:05:45;96667.44;;;7.55;67.17
42847;BME280;28495;49.916;14.536;2023-02-22T20:11:06;96670.03;;;7.55;67.02
42847;BME280;28495;49.916;14.536;2023-02-22T20:16:27;96669.78;;;7.58;67.19
42847;BME280;28495;49.916;14.536;2023-02-22T20:21:53;96664.03;;;7.55;67.07
42847;BME280;28495;49.916;14.536;2023-02-22T20:27:17;96666.03;;;7.51;67.28
42847;BME280;28495;49.916;14.536;2023-02-22T20:32:38;96671.72;;;7.45;67.28
42847;BME280;28495;49.916;14.536;2023-02-22T20:37:59;96672.16;;;7.50;67.25
42847;BME280;28495;49.916;14.536;2023-02-22T20:43:20;96663.09;;;7.44;67.23
42847;BME280;28495;49.916;14.536;2023-02-22T20:48:43;96658.28;;;7.40;67.28
42847;BME280;28495;49.916;14.536;2023-02-22T20:54:05;96657.22;;;7.42;67.33
42847;BME280;28495;49.916;14.536;2023-02-22T20:59:28;96661.22;;;7.46;67.46
42847;BME280;28495;49.916;14.536;2023-02-22T21:04:50;96662.28;;;7.44;67.32
42847;BME280;28495;49.916;14.536;2023-02-22T21:10:12;96661.91;;;7.48;67.43
42847;BME280;28495;49.916;14.536;2023-02-22T21:15:34;96667.69;;;7.52;67.20
42847;BME280;28495;49.916;14.536;2023-02-22T21:20:55;96662.50;;;7.52;67.23
42847;BME280;28495;49.916;14.536;2023-02-22T21:26:22;96653.56;;;7.45;67.38
42847;BME280;28495;49.916;14.536;2023-02-22T21:31:44;96654.63;;;7.42;67.17
42847;BME280;28495;49.916;14.536;2023-02-22T21:37:05;96655.56;;;7.41;67.23
42847;BME280;28495;49.916;14.536;2023-02-22T21:42:28;96650.22;;;7.54;67.34
42847;BME280;28495;49.916;14.536;2023-02-22T21:47:49;96638.81;;;7.45;67.40
42847;BME280;28495;49.916;14.536;2023-02-22T21:53:13;96648.28;;;7.35;66.94
42847;BME280;28495;49.916;14.536;2023-02-22T21:58:35;96641.44;;;7.34;67.19
42847;BME280;28495;49.916;14.536;2023-02-22T22:03:56;96643.75;;;7.16;66.69
42847;BME280;28495;49.916;14.536;2023-02-22T22:09:20;96643.38;;;7.21;67.12
42847;BME280;28495;49.916;14.536;2023-02-22T22:14:43;96651.88;;;7.23;67.23
42847;BME280;28495;49.916;14.536;2023-02-22T22:20:04;96642.19;;;7.25;67.35
42847;BME280;28495;49.916;14.536;2023-02-22T22:25:26;96640.56;;;7.24;67.04
42847;BME280;28495;49.916;14.536;2023-02-22T22:30:48;96642.81;;;7.17;67.26
42847;BME280;28495;49.916;14.536;2023-02-22T22:36:11;96640.91;;;7.19;66.87
42847;BME280;28495;49.916;14.536;2023-02-22T22:41:32;96642.63;;;7.30;67.28
42847;BME280;28495;49.916;14.536;2023-02-22T22:46:53;96638.81;;;7.45;67.59
42847;BME280;28495;49.916;14.536;2023-02-22T22:52:15;96640.41;;;7.58;67.75
42847;BME280;28495;49.916;14.536;2023-02-22T22:57:38;96632.91;;;7.55;67.48
42847;BME280;28495;49.916;14.536;2023-02-22T23:03:00;96630.25;;;7.66;67.49
42847;BME280;28495;49.916;14.536;2023-02-22T23:08:20;96633.09;;;7.63;67.26
42847;BME280;28495;49.916;14.536;2023-02-22T23:13:48;96631.44;;;7.62;67.45
42847;BME280;28495;49.916;14.536;2023-02-22T23:19:10;96629.84;;;7.50;66.81
42847;BME280;28495;49.916;14.536;2023-02-22T23:24:33;96638.84;;;7.34;66.76
42847;BME280;28495;49.916;14.536;2023-02-22T23:29:59;96623.06;;;7.37;67.13
42847;BME280;28495;49.916;14.536;2023-02-22T23:35:19;96624.81;;;7.37;66.51
42847;BME280;28495;49.916;14.536;2023-02-22T23:40:40;96620.84;;;7.21;66.56
42847;BME280;28495;49.916;14.536;2023-02-22T23:46:08;96612.13;;;7.22;67.14
42847;BME280;28495;49.916;14.536;2023-02-22T23:51:30;96619.44;;;7.28;67.16
42847;BME280;28495;49.916;14.536;2023-02-22T23:57:02;96619.50;;;7.38;67.20
